Time;durP1;ratioP1;P1;durP2;ratioP2;P2;SDS_P1;SDS_P2;PMS_P1;PMS_P2;Temp;Humidity;BMP_temperature;BMP_pressure;BME280_temperature;BME280_humidity;BME280_pressure;Samples;Min_cycle;Max_cycle;Signal;HPM_P1;HPM_P2
2023/06/07 00:01:48;;;;;;;1999.90;999.90;;;13.20;99.90;;;;;;6185266;23;22242;-72
2023/06/07 00:04:13;;;;;;;1999.90;999.90;;;13.20;99.90;;;;;;6185510;23;21749;-72
2023/06/07 00:06:42;;;;;;;1999.90;999.90;;;13.10;99.90;;;;;;6185877;23;20002;-71
2023/06/07 00:09:10;;;;;;;1999.90;999.90;;;13.10;99.90;;;;;;6185698;23;20017;-71
2023/06/07 00:11:36;;;;;;;1999.90;999.90;;;13.00;99.90;;;;;;6185627;23;20013;-72
2023/06/07 00:14:02;;;;;;;1999.90;999.90;;;13.00;99.90;;;;;;6185890;23;20446;-72
2023/06/07 00:16:28;;;;;;;1999.90;999.90;;;13.00;99.90;;;;;;6185830;23;20036;-72
2023/06/07 00:18:54;;;;;;;1999.90;999.90;;;13.10;99.90;;;;;;6185619;23;20421;-72
2023/06/07 00:21:20;;;;;;;1999.90;999.90;;;13.00;99.90;;;;;;6185590;22;20005;-71
2023/06/07 00:23:48;;;;;;;1999.90;999.90;;;13.00;99.90;;;;;;6186100;22;20010;-72
2023/06/07 00:26:14;;;;;;;1999.90;999.90;;;13.00;99.90;;;;;;6185964;23;20009;-72
2023/06/07 00:28:40;;;;;;;1999.90;999.90;;;13.00;99.90;;;;;;6185511;23;20102;-72
2023/06/07 00:31:06;;;;;;;1999.90;999.90;;;12.90;99.90;;;;;;6185648;23;20556;-72
2023/06/07 00:33:31;;;;;;;1999.90;999.90;;;12.90;99.90;;;;;;6185897;23;20033;-72
2023/06/07 00:35:57;;;;;;;1999.90;999.90;;;12.90;99.90;;;;;;6185575;23;20020;-72
2023/06/07 00:38:23;;;;;;;1999.90;999.90;;;12.90;99.90;;;;;;6185524;23;20110;-72
2023/06/07 00:40:49;;;;;;;1999.90;999.90;;;12.90;99.90;;;;;;6186122;22;20067;-72
2023/06/07 00:43:15;;;;;;;1999.90;999.90;;;12.80;99.90;;;;;;6185835;22;20076;-72
2023/06/07 00:45:40;;;;;;;1999.90;999.90;;;12.80;99.90;;;;;;6185879;23;20005;-72
2023/06/07 00:48:07;;;;;;;1999.90;999.90;;;12.80;99.90;;;;;;6185522;23;20426;-72
2023/06/07 00:50:33;;;;;;;1999.90;999.90;;;12.70;99.90;;;;;;6186699;22;20397;-71
2023/06/07 00:53:00;;;;;;;1999.90;999.90;;;12.70;99.90;;;;;;6187428;23;20010;-72
2023/06/07 00:55:26;;;;;;;1999.90;999.90;;;12.70;99.90;;;;;;6291881;22;20525;-72
2023/06/07 00:57:52;;;;;;;1999.90;999.90;;;12.70;99.90;;;;;;6187917;22;20020;-72
2023/06/07 01:00:18;;;;;;;1999.90;999.90;;;12.70;99.90;;;;;;6187586;23;20096;-72
2023/06/07 01:02:46;;;;;;;1999.90;999.90;;;12.70;99.90;;;;;;6187114;23;20014;-72
2023/06/07 01:05:13;;;;;;;1999.90;999.90;;;12.70;99.90;;;;;;6187532;22;20465;-71
2023/06/07 01:07:38;;;;;;;1999.90;999.90;;;12.70;99.90;;;;;;6187098;23;20018;-71
2023/06/07 01:10:05;;;;;;;1999.90;999.90;;;12.60;99.90;;;;;;6187383;23;20005;-71
2023/06/07 01:12:34;;;;;;;1999.90;999.90;;;12.60;99.90;;;;;;6187047;23;20428;-71
2023/06/07 01:15:01;;;;;;;1999.90;999.90;;;12.60;99.90;;;;;;6187408;23;20005;-71
2023/06/07 01:17:28;;;;;;;1999.90;999.90;;;12.60;99.90;;;;;;6187480;23;20429;-71
2023/06/07 01:19:57;;;;;;;1999.90;999.90;;;12.60;99.90;;;;;;6187460;22;20005;-71
2023/06/07 01:22:27;;;;;;;1999.90;999.90;;;12.60;99.90;;;;;;6186245;23;20386;-71
2023/06/07 01:24:53;;;;;;;1999.90;999.90;;;12.60;99.90;;;;;;6291213;22;20515;-71
2023/06/07 01:27:21;;;;;;;1999.90;999.90;;;12.50;99.90;;;;;;6187302;23;20430;-71
2023/06/07 01:29:50;;;;;;;1999.90;999.90;;;12.50;99.90;;;;;;6187283;22;20012;-71
2023/06/07 01:32:17;;;;;;;1999.90;999.90;;;12.50;99.90;;;;;;6186931;23;20010;-71
2023/06/07 01:34:43;;;;;;;1999.90;999.90;;;12.50;99.90;;;;;;6187204;23;20009;-71
2023/06/07 01:37:09;;;;;;;1999.90;999.90;;;12.50;99.90;;;;;;6187268;23;20012;-71
2023/06/07 01:39:36;;;;;;;1999.90;999.90;;;12.40;99.90;;;;;;6186784;23;20433;-71
2023/06/07 01:42:02;;;;;;;1999.90;999.90;;;12.40;99.90;;;;;;6186842;23;20085;-71
2023/06/07 01:44:29;;;;;;;1999.90;999.90;;;12.40;99.90;;;;;;6187215;23;20010;-71
2023/06/07 01:46:54;;;;;;;1999.90;999.90;;;12.40;99.90;;;;;;6187236;22;20010;-71
2023/06/07 01:49:20;;;;;;;1999.90;999.90;;;12.40;99.90;;;;;;6186580;23;20080;-71
2023/06/07 01:51:45;;;;;;;1999.90;999.90;;;12.30;99.90;;;;;;6186812;23;20037;-71
2023/06/07 01:54:13;;;;;;;1999.90;999.90;;;12.30;99.90;;;;;;6186913;23;20147;-71
2023/06/07 01:57:16;;;;;;;1999.90;999.90;;;12.30;99.90;;;;;;6186891;23;20001;-71
2023/06/07 02:00:08;;;;;;;1999.90;999.90;;;12.30;99.90;;;;;;6187031;23;20021;-71
2023/06/07 02:02:52;;;;;;;1999.90;999.90;;;12.20;99.90;;;;;;6186115;23;20010;-71
2023/06/07 02:05:24;;;;;;;1999.90;999.90;;;12.20;99.90;;;;;;6187157;22;20396;-71
2023/06/07 02:07:53;;;;;;;1999.90;999.90;;;12.20;99.90;;;;;;6291937;22;20463;-72
2023/06/07 02:10:21;;;;;;;1999.90;999.90;;;12.20;99.90;;;;;;6188110;22;20036;-72
2023/06/07 02:12:49;;;;;;;1999.90;999.90;;;12.20;99.90;;;;;;6292221;22;20010;-72
2023/06/07 02:15:15;;;;;;;1999.90;999.90;;;12.20;99.90;;;;;;6187996;23;20457;-72
2023/06/07 02:18:01;;;;;;;1999.90;999.90;;;12.20;99.90;;;;;;6187840;23;20010;-72
2023/06/07 02:20:34;;;;;;;1999.90;999.90;;;12.10;99.90;;;;;;6188222;23;20075;-72
2023/06/07 02:22:59;;;;;;;1999.90;999.90;;;12.10;99.90;;;;;;6187920;23;20010;-72
2023/06/07 02:25:26;;;;;;;1999.90;999.90;;;12.10;99.90;;;;;;6188390;23;20006;-72
2023/06/07 02:27:52;;;;;;;1999.90;999.90;;;12.10;99.90;;;;;;6188111;22;20083;-72
2023/06/07 02:30:18;;;;;;;1999.90;999.90;;;12.00;99.90;;;;;;6188265;23;20006;-72
2023/06/07 02:32:49;;;;;;;1999.90;999.90;;;12.10;99.90;;;;;;6187432;23;20002;-72
2023/06/07 02:35:17;;;;;;;1999.90;999.90;;;12.00;99.90;;;;;;6187827;23;20477;-72
2023/06/07 02:37:43;;;;;;;1999.90;999.90;;;12.00;99.90;;;;;;6187625;23;20006;-72
2023/06/07 02:40:10;;;;;;;1999.90;999.90;;;12.00;99.90;;;;;;6188170;23;20075;-72
2023/06/07 02:42:36;;;;;;;1999.90;999.90;;;11.90;99.90;;;;;;6292385;22;20010;-72
2023/06/07 02:45:03;;;;;;;1999.90;999.90;;;11.90;99.90;;;;;;6292154;22;20016;-72
2023/06/07 02:47:32;;;;;;;1999.90;999.90;;;11.90;99.90;;;;;;6187464;23;20012;-72
2023/06/07 02:49:57;;;;;;;1999.90;999.90;;;11.90;99.90;;;;;;6187648;23;20002;-72
2023/06/07 02:52:25;;;;;;;1999.90;999.90;;;11.90;99.90;;;;;;6187318;23;20032;-72
2023/06/07 02:54:50;;;;;;;1999.90;999.90;;;11.90;99.90;;;;;;6187081;23;20096;-72
2023/06/07 02:57:16;;;;;;;1999.90;999.90;;;11.90;99.90;;;;;;6187472;23;20077;-72
2023/06/07 02:59:41;;;;;;;1999.90;999.90;;;11.90;99.90;;;;;;6187234;23;20009;-72
2023/06/07 03:02:07;;;;;;;1999.90;999.90;;;11.90;99.90;;;;;;6187197;23;20006;-72
2023/06/07 03:04:33;;;;;;;1999.90;999.90;;;11.90;99.90;;;;;;6187120;23;20009;-72
2023/06/07 03:07:00;;;;;;;1999.90;999.90;;;11.80;99.90;;;;;;6187450;22;20002;-72
2023/06/07 03:09:25;;;;;;;1999.90;999.90;;;11.80;99.90;;;;;;6187590;22;20010;-72
2023/06/07 03:11:51;;;;;;;1999.90;999.90;;;11.80;99.90;;;;;;6187175;23;20009;-72
2023/06/07 03:14:18;;;;;;;1999.90;999.90;;;11.80;99.90;;;;;;6187068;23;20013;-72
2023/06/07 03:16:45;;;;;;;1999.90;999.90;;;11.80;99.90;;;;;;6187371;23;20033;-72
2023/06/07 03:19:11;;;;;;;1999.90;999.90;;;11.70;99.90;;;;;;6187021;23;20454;-72
2023/06/07 03:21:38;;;;;;;1999.90;999.90;;;11.80;99.90;;;;;;6186942;23;20013;-72
2023/06/07 03:24:04;;;;;;;1999.90;999.90;;;11.80;99.90;;;;;;6187260;22;20097;-72
2023/06/07 03:26:31;;;;;;;1999.90;999.90;;;11.70;99.90;;;;;;6187309;23;20040;-72
2023/06/07 03:28:56;;;;;;;1999.90;999.90;;;11.80;99.90;;;;;;6186962;23;20009;-72
2023/06/07 03:31:23;;;;;;;1999.90;999.90;;;11.80;99.90;;;;;;6186941;23;20401;-72
2023/06/07 03:33:49;;;;;;;1999.90;999.90;;;11.80;99.90;;;;;;6187726;22;20055;-72
2023/06/07 03:36:20;;;;;;;1999.90;999.90;;;11.80;99.90;;;;;;6187164;23;20384;-72
2023/06/07 03:38:46;;;;;;;1999.90;999.90;;;11.80;99.90;;;;;;6187151;22;20059;-72
2023/06/07 03:41:11;;;;;;;1999.90;999.90;;;11.80;99.90;;;;;;6187099;22;20500;-72
2023/06/07 03:43:37;;;;;;;1999.90;999.90;;;11.80;99.90;;;;;;6187239;23;20127;-71
2023/06/07 03:46:03;;;;;;;1999.90;999.90;;;11.70;99.90;;;;;;6186783;23;20017;-72
2023/06/07 03:48:28;;;;;;;1999.90;999.90;;;11.70;99.90;;;;;;6186731;23;20016;-72
2023/06/07 03:50:53;;;;;;;1999.90;999.90;;;11.70;99.90;;;;;;6186824;23;20346;-72
2023/06/07 03:53:19;;;;;;;1999.90;999.90;;;11.70;99.90;;;;;;6186268;23;20006;-72
2023/06/07 03:55:47;;;;;;;1999.90;999.90;;;11.70;99.90;;;;;;6187010;23;20017;-72
2023/06/07 03:58:13;;;;;;;1999.90;999.90;;;11.70;99.90;;;;;;6291061;22;20020;-72
2023/06/07 04:00:39;;;;;;;1999.90;999.90;;;11.70;99.90;;;;;;6186566;23;20017;-72
2023/06/07 04:03:04;;;;;;;1999.90;999.90;;;11.70;99.90;;;;;;6186184;23;20006;-72
2023/06/07 04:05:31;;;;;;;1999.90;999.90;;;11.80;99.90;;;;;;6186648;23;20005;-72
2023/06/07 04:07:59;;;;;;;1999.90;999.90;;;11.80;99.90;;;;;;6186691;22;20001;-72
2023/06/07 04:10:25;;;;;;;1999.90;999.90;;;11.90;99.90;;;;;;6187042;22;20010;-72
2023/06/07 04:12:50;;;;;;;1999.90;999.90;;;11.90;99.90;;;;;;6186730;23;20388;-72
2023/06/07 04:15:16;;;;;;;1999.90;999.90;;;11.90;99.90;;;;;;6186729;23;20017;-72
2023/06/07 04:17:41;;;;;;;1999.90;999.90;;;12.00;99.90;;;;;;6186829;23;20215;-72
2023/06/07 04:20:09;;;;;;;1999.90;999.90;;;12.10;99.90;;;;;;6186886;23;20017;-72
2023/06/07 04:22:35;;;;;;;1999.90;999.90;;;12.10;99.90;;;;;;6186184;22;20029;-72
2023/06/07 04:25:02;;;;;;;1999.90;999.90;;;12.10;99.90;;;;;;6187400;22;20029;-72
2023/06/07 04:27:29;;;;;;;1999.90;999.90;;;12.20;99.90;;;;;;6189247;23;20002;-72
2023/06/07 04:29:55;;;;;;;1999.90;999.90;;;12.20;99.90;;;;;;6189156;22;20016;-72
2023/06/07 04:32:21;;;;;;;1999.90;999.90;;;12.20;99.90;;;;;;6187821;23;20006;-70
2023/06/07 04:34:47;;;;;;;1999.90;999.90;;;12.40;99.90;;;;;;6187911;22;20020;-74
2023/06/07 04:37:13;;;;;;;1999.90;999.90;;;12.40;99.90;;;;;;6292292;22;20002;-71
2023/06/07 04:39:40;;;;;;;1999.90;999.90;;;12.40;99.90;;;;;;6187367;23;20071;-71
2023/06/07 04:42:07;;;;;;;1999.90;999.90;;;12.50;99.90;;;;;;6317862;22;20010;-71
2023/06/07 04:44:32;;;;;;;1999.90;999.90;;;12.50;99.90;;;;;;6187808;23;20013;-70
2023/06/07 04:46:59;;;;;;;1999.90;999.90;;;12.50;99.90;;;;;;6187865;22;20081;-71
2023/06/07 04:49:25;;;;;;;1999.90;999.90;;;12.60;99.90;;;;;;6187102;23;20014;-71
2023/06/07 04:51:52;;;;;;;1999.90;999.90;;;12.70;99.90;;;;;;6187269;23;20012;-71
2023/06/07 04:54:19;;;;;;;1999.90;999.90;;;12.80;99.90;;;;;;6187842;22;20009;-71
2023/06/07 04:56:45;;;;;;;1999.90;999.90;;;12.80;99.90;;;;;;6187898;22;20006;-71
2023/06/07 04:59:10;;;;;;;1999.90;999.90;;;12.90;99.90;;;;;;6186101;23;20018;-72
2023/06/07 05:01:36;;;;;;;1999.90;999.90;;;13.00;99.90;;;;;;6186607;23;20002;-72
2023/06/07 05:04:02;;;;;;;1999.90;999.90;;;13.00;99.90;;;;;;6186887;23;20498;-72
2023/06/07 05:06:29;;;;;;;1999.90;999.90;;;13.10;99.90;;;;;;6183647;23;20441;-71
2023/06/07 05:08:55;;;;;;;1999.90;999.90;;;13.20;99.90;;;;;;6291543;22;20036;-72
2023/06/07 05:11:21;;;;;;;1999.90;999.90;;;13.20;99.90;;;;;;6187251;22;20044;-73
2023/06/07 05:13:46;;;;;;;1999.90;999.90;;;13.30;99.90;;;;;;6186586;23;20044;-72
2023/06/07 05:16:16;;;;;;;1999.90;999.90;;;13.40;99.90;;;;;;6187265;23;20025;-72
2023/06/07 05:18:46;;;;;;;1999.90;999.90;;;13.50;99.90;;;;;;6291716;22;20020;-73
2023/06/07 05:21:12;;;;;;;1999.90;999.90;;;13.60;99.90;;;;;;6186933;23;20033;-72
2023/06/07 05:23:38;;;;;;;1999.90;999.90;;;13.70;99.90;;;;;;6187604;23;20063;-71
2023/06/07 05:26:03;;;;;;;1999.90;999.90;;;13.80;99.90;;;;;;6187569;23;20071;-71
2023/06/07 05:28:29;;;;;;;1999.90;999.90;;;13.80;99.90;;;;;;6291568;22;20453;-71
2023/06/07 05:30:56;;;;;;;1999.90;999.90;;;13.90;99.90;;;;;;6186792;23;20009;-71
2023/06/07 05:33:22;;;;;;;1999.90;999.90;;;13.90;99.90;;;;;;6187047;23;20005;-71
2023/06/07 05:35:47;;;;;;;1999.90;999.90;;;14.00;99.90;;;;;;6291630;22;20020;-71
2023/06/07 05:38:13;;;;;;;1999.90;999.90;;;14.20;99.90;;;;;;6186832;23;20434;-71
2023/06/07 05:40:38;;;;;;;1999.90;999.90;;;14.30;99.90;;;;;;6187462;22;20005;-71
2023/06/07 05:43:04;;;;;;;1999.90;999.90;;;14.40;99.90;;;;;;6186787;23;20307;-74
2023/06/07 05:45:30;;;;;;;1999.90;999.90;;;14.50;99.90;;;;;;6290576;22;20020;-71
2023/06/07 05:47:55;;;;;;;1999.90;999.90;;;14.60;99.90;;;;;;6185788;23;20498;-70
2023/06/07 05:50:23;;;;;;;1999.90;999.90;;;14.70;99.90;;;;;;6186880;23;20051;-70
2023/06/07 05:52:56;;;;;;;1999.90;999.90;;;14.70;99.90;;;;;;6186727;22;20092;-70
2023/06/07 05:55:23;;;;;;;1999.90;999.90;;;14.80;99.90;;;;;;6186827;23;20013;-70
2023/06/07 05:57:49;;;;;;;1999.90;999.90;;;15.00;99.90;;;;;;6186501;23;20139;-70
2023/06/07 06:00:16;;;;;;;1999.90;999.90;;;15.00;99.90;;;;;;6187189;22;20016;-70
2023/06/07 06:02:45;;;;;;;1999.90;999.90;;;15.00;99.90;;;;;;6186790;23;20390;-70
2023/06/07 06:05:11;;;;;;;1999.90;999.90;;;15.00;99.90;;;;;;6186721;23;20055;-70
2023/06/07 06:07:37;;;;;;;1999.90;999.90;;;15.10;99.90;;;;;;6186702;23;20005;-70
2023/06/07 06:10:04;;;;;;;1999.90;999.90;;;15.20;99.90;;;;;;6291774;22;20013;-70
2023/06/07 06:12:30;;;;;;;1999.90;999.90;;;15.40;99.90;;;;;;6186559;23;20051;-70
2023/06/07 06:14:55;;;;;;;1999.90;999.90;;;15.50;99.90;;;;;;6186712;23;20459;-71
2023/06/07 06:17:22;;;;;;;1999.90;999.90;;;15.70;99.90;;;;;;6186916;23;20006;-70
2023/06/07 06:19:47;;;;;;;1999.90;999.90;;;16.00;99.90;;;;;;6186571;23;20009;-70
2023/06/07 06:22:13;;;;;;;1999.90;999.90;;;16.20;99.90;;;;;;6186210;23;20319;-71
2023/06/07 06:24:38;;;;;;;1999.90;999.90;;;16.50;99.90;;;;;;6186735;23;20085;-70
2023/06/07 06:27:06;;;;;;;1999.90;999.90;;;16.90;99.90;;;;;;6186737;23;20456;-71
2023/06/07 06:29:31;;;;;;;1999.90;999.90;;;17.30;99.90;;;;;;6186630;23;20055;-71
2023/06/07 06:31:57;;;;;;;1999.90;999.90;;;17.60;99.90;;;;;;6186326;23;20429;-71
2023/06/07 06:34:23;;;;;;;1999.90;999.90;;;17.90;99.90;;;;;;6186693;23;20021;-70
2023/06/07 06:36:49;;;;;;;1999.90;999.90;;;18.10;99.90;;;;;;6186807;22;20012;-70
2023/06/07 06:39:15;;;;;;;1999.90;999.90;;;18.20;99.90;;;;;;6186434;23;20013;-70
2023/06/07 06:41:40;;;;;;;1999.90;999.90;;;18.30;99.90;;;;;;6186223;23;20009;-70
2023/06/07 06:44:06;;;;;;;1999.90;999.90;;;18.50;99.90;;;;;;6291400;22;20009;-71
2023/06/07 06:46:31;;;;;;;1999.90;999.90;;;18.80;99.90;;;;;;6186513;23;20453;-70
2023/06/07 06:48:57;;;;;;;1999.90;999.90;;;19.00;99.90;;;;;;6186213;23;20005;-71
2023/06/07 06:51:22;;;;;;;1999.90;999.90;;;19.40;99.90;;;;;;6185968;23;20005;-71
2023/06/07 06:53:48;;;;;;;1999.90;999.90;;;19.40;99.90;;;;;;6186566;23;20013;-71
2023/06/07 06:56:13;;;;;;;1999.90;999.90;;;19.50;99.90;;;;;;6186412;23;20013;-71
2023/06/07 06:58:40;;;;;;;1999.90;999.90;;;19.50;99.90;;;;;;6221406;22;20035;-71
2023/06/07 07:01:07;;;;;;;1999.90;999.90;;;19.70;99.90;;;;;;6313521;22;20059;-71
2023/06/07 07:03:33;;;;;;;1999.90;999.90;;;19.50;99.90;;;;;;6314491;22;20050;-70
2023/06/07 07:05:58;;;;;;;1999.90;999.90;;;19.40;99.90;;;;;;6313841;22;20012;-71
2023/06/07 07:08:25;;;;;;;1999.90;999.90;;;19.30;99.90;;;;;;6314015;22;20373;-70
2023/06/07 07:10:50;;;;;;;1999.90;999.90;;;19.30;99.90;;;;;;6314189;22;20004;-71
2023/06/07 07:13:16;;;;;;;1999.90;999.90;;;19.40;99.90;;;;;;6314190;22;20320;-71
2023/06/07 07:15:42;;;;;;;1999.90;999.90;;;19.50;99.90;;;;;;6314224;22;20016;-70
2023/06/07 07:18:08;;;;;;;1999.90;999.90;;;19.60;99.90;;;;;;6314121;22;20387;-71
2023/06/07 07:20:33;;;;;;;1999.90;999.90;;;19.80;99.90;;;;;;6286785;22;20466;-71
2023/06/07 07:23:01;;;;;;;1999.90;999.90;;;20.00;99.90;;;;;;6314029;22;20069;-71
2023/06/07 07:25:27;;;;;;;1999.90;999.90;;;20.30;99.90;;;;;;6314112;22;20418;-71
2023/06/07 07:27:53;;;;;;;1999.90;999.90;;;20.30;99.90;;;;;;6314013;22;20046;-69
2023/06/07 07:30:19;;;;;;;1999.90;999.90;;;20.60;99.90;;;;;;6286739;22;20048;-69
2023/06/07 07:32:44;;;;;;;1999.90;999.90;;;20.60;99.90;;;;;;6313735;22;20018;-69
2023/06/07 07:35:10;;;;;;;1999.90;999.90;;;20.70;99.90;;;;;;6314155;22;20035;-71
2023/06/07 07:37:38;;;;;;;1999.90;999.90;;;20.70;99.90;;;;;;6314314;22;20450;-72
2023/06/07 07:40:05;;;;;;;1999.90;999.90;;;21.00;99.90;;;;;;6313954;22;20003;-70
2023/06/07 07:42:30;;;;;;;1999.90;999.90;;;21.20;99.90;;;;;;6313776;22;20004;-70
2023/06/07 07:44:56;;;;;;;1999.90;999.90;;;21.30;99.90;;;;;;6314090;22;20061;-70
2023/06/07 07:47:22;;;;;;;1999.90;999.90;;;21.30;99.90;;;;;;6314156;22;20461;-69
2023/06/07 07:49:47;;;;;;;1999.90;999.90;;;21.10;99.90;;;;;;6313957;22;20027;-70
2023/06/07 07:52:13;;;;;;;1999.90;999.90;;;20.90;99.90;;;;;;6313766;22;20378;-70
2023/06/07 07:54:39;;;;;;;1999.90;999.90;;;20.70;99.90;;;;;;6286256;22;20016;-69
2023/06/07 07:57:05;;;;;;;1999.90;999.90;;;20.80;99.90;;;;;;6314053;22;20082;-69
2023/06/07 07:59:30;;;;;;;1999.90;999.90;;;20.80;99.90;;;;;;6313153;22;20749;-70
2023/06/07 08:01:56;;;;;;;1999.90;999.90;;;20.80;99.90;;;;;;6314840;22;20004;-71
2023/06/07 08:04:21;;;;;;;1999.90;999.90;;;20.90;99.90;;;;;;6315207;22;20099;-70
2023/06/07 08:06:47;;;;;;;1999.90;999.90;;;20.80;99.90;;;;;;6315090;22;20354;-70
2023/06/07 08:09:14;;;;;;;1999.90;999.90;;;20.70;99.90;;;;;;6314856;22;20017;-71
2023/06/07 08:11:39;;;;;;;1999.90;999.90;;;20.60;99.90;;;;;;6314848;22;20004;-69
2023/06/07 08:14:05;;;;;;;1999.90;999.90;;;20.70;99.90;;;;;;6287395;22;20012;-71
2023/06/07 08:16:30;;;;;;;1999.90;999.90;;;21.00;99.90;;;;;;6287477;22;20035;-70
2023/06/07 08:18:59;;;;;;;1999.90;999.90;;;21.00;99.90;;;;;;6315074;22;20447;-70
2023/06/07 08:21:25;;;;;;;1999.90;999.90;;;20.90;99.90;;;;;;6314719;22;20405;-71
2023/06/07 08:23:55;;;;;;;1999.90;999.90;;;20.80;99.90;;;;;;6314985;22;20018;-70
2023/06/07 08:26:21;;;;;;;1999.90;999.90;;;21.00;99.90;;;;;;6315130;22;20004;-70
2023/06/07 08:28:49;;;;;;;1999.90;999.90;;;21.50;99.90;;;;;;6287392;22;20035;-71
2023/06/07 08:31:15;;;;;;;1999.90;999.90;;;21.50;99.90;;;;;;6314744;22;20008;-71
2023/06/07 08:33:41;;;;;;;1999.90;999.90;;;21.60;99.90;;;;;;6314836;22;20003;-71
2023/06/07 08:36:06;;;;;;;1999.90;999.90;;;21.40;99.90;;;;;;6314805;22;20015;-71
2023/06/07 08:38:32;;;;;;;1999.90;999.90;;;21.10;99.90;;;;;;6287244;22;20378;-71
2023/06/07 08:41:00;;;;;;;1999.90;999.90;;;21.10;99.90;;;;;;6314641;22;20031;-70
2023/06/07 08:43:26;;;;;;;1999.90;999.90;;;21.20;99.90;;;;;;6314989;22;20004;-71
2023/06/07 08:45:52;;;;;;;1999.90;999.90;;;21.30;99.90;;;;;;6315003;22;20007;-71
2023/06/07 08:48:17;;;;;;;1999.90;999.90;;;21.20;99.90;;;;;;6314969;22;20386;-71
2023/06/07 08:50:46;;;;;;;1999.90;999.90;;;21.30;99.90;;;;;;6315283;22;20407;-71
2023/06/07 08:53:17;;;;;;;1999.90;999.90;;;21.40;99.90;;;;;;6315346;22;20388;-71
2023/06/07 08:55:43;;;;;;;1999.90;999.90;;;21.40;99.90;;;;;;6315123;22;20016;-72
2023/06/07 08:58:10;;;;;;;1999.90;999.90;;;21.60;99.90;;;;;;6314226;22;20004;-71
2023/06/07 09:00:36;;;;;;;1999.90;999.90;;;21.80;99.90;;;;;;6315629;22;20010;-71
2023/06/07 09:03:03;;;;;;;1999.90;999.90;;;22.00;99.90;;;;;;6314704;22;20042;-71
2023/06/07 09:05:30;;;;;;;1999.90;999.90;;;22.20;99.90;;;;;;6314289;22;20007;-71
2023/06/07 09:07:56;;;;;;;1999.90;999.90;;;22.30;99.90;;;;;;6287452;22;20087;-73
2023/06/07 09:10:25;;;;;;;1999.90;999.90;;;22.60;99.90;;;;;;6314895;22;20015;-70
2023/06/07 09:12:50;;;;;;;1999.90;999.90;;;22.90;99.90;;;;;;6286724;22;20027;-71
2023/06/07 09:15:22;;;;;;;1999.90;999.90;;;23.60;99.30;;;;;;6314758;22;20047;-71
2023/06/07 09:17:54;;;;;;;1999.90;999.90;;;24.30;97.20;;;;;;6314946;22;20125;-71
2023/06/07 09:20:21;;;;;;;1999.90;999.90;;;24.90;95.90;;;;;;6314945;22;20347;-71
2023/06/07 09:22:58;;;;;;;1999.90;999.90;;;25.30;94.60;;;;;;6314527;22;20087;-71
2023/06/07 09:25:24;;;;;;;1999.90;999.90;;;25.40;93.70;;;;;;6314715;22;20027;-71
2023/06/07 09:27:50;;;;;;;1999.90;999.90;;;25.70;92.60;;;;;;6314672;22;20445;-71
2023/06/07 09:30:17;;;;;;;1999.90;999.90;;;25.50;91.80;;;;;;6287147;22;20008;-71
2023/06/07 09:32:43;;;;;;;1999.90;999.90;;;25.40;91.20;;;;;;6314412;22;20008;-71
2023/06/07 09:35:16;;;;;;;1999.90;999.90;;;25.10;92.10;;;;;;6314631;22;20007;-72
2023/06/07 09:37:46;;;;;;;1999.90;999.90;;;25.20;91.50;;;;;;6314640;22;20007;-71
2023/06/07 09:40:13;;;;;;;1999.90;999.90;;;25.50;90.40;;;;;;6314599;22;20011;-72
2023/06/07 09:42:42;;;;;;;1999.90;999.90;;;25.60;89.90;;;;;;6314488;22;20501;-72
2023/06/07 09:45:18;;;;;;;1999.90;999.90;;;25.60;90.40;;;;;;6314853;22;20015;-72
2023/06/07 09:47:43;;;;;;;1999.90;999.90;;;25.40;90.60;;;;;;6314599;22;20007;-71
2023/06/07 09:50:11;;;;;;;1999.90;999.90;;;24.80;90.00;;;;;;6314418;22;20023;-72
2023/06/07 09:52:36;;;;;;;1999.90;999.90;;;24.20;92.00;;;;;;6314082;22;20094;-72
2023/06/07 09:55:02;;;;;;;1999.90;999.90;;;23.80;92.30;;;;;;6314413;22;20155;-72
2023/06/07 09:57:30;;;;;;;1999.90;999.90;;;23.90;92.80;;;;;;6314607;22;20431;-72
2023/06/07 10:00:16;;;;;;;1999.90;999.90;;;24.20;91.50;;;;;;6314312;22;20008;-72
2023/06/07 10:02:43;;;;;;;1999.90;999.90;;;24.40;90.90;;;;;;6314215;22;20004;-71
2023/06/07 10:05:09;;;;;;;1999.90;999.90;;;24.40;90.80;;;;;;6314569;22;20087;-71
2023/06/07 10:07:42;;;;;;;1999.90;999.90;;;24.60;90.20;;;;;;6314549;22;20419;-72
2023/06/07 10:10:12;;;;;;;1999.90;999.90;;;24.50;91.20;;;;;;6314476;22;20061;-70
2023/06/07 10:12:42;;;;;;;1999.90;999.90;;;24.70;91.30;;;;;;6286376;22;20012;-71
2023/06/07 10:15:10;;;;;;;1999.90;999.90;;;24.70;90.40;;;;;;6314534;22;20068;-73
2023/06/07 10:18:11;;;;;;;1999.90;999.90;;;25.00;90.00;;;;;;6314582;22;20023;-73
2023/06/07 10:20:41;;;;;;;1999.90;999.90;;;25.30;90.00;;;;;;6314186;22;20004;-70
2023/06/07 10:23:13;;;;;;;1999.90;999.90;;;25.60;89.90;;;;;;6313474;22;20428;-71
2023/06/07 10:26:11;;;;;;;1999.90;999.90;;;25.90;86.20;;;;;;6314469;22;20348;-70
2023/06/07 10:28:40;;;;;;;1999.90;999.90;;;26.00;87.20;;;;;;6309273;22;20003;-71
2023/06/07 10:31:10;;;;;;;1999.90;999.90;;;25.90;87.40;;;;;;6314071;22;20003;-71
2023/06/07 10:33:37;;;;;;;1999.90;999.90;;;26.30;85.10;;;;;;6314444;22;20332;-73
2023/06/07 10:36:06;;;;;;;1999.90;999.90;;;26.50;85.80;;;;;;6314220;22;20507;-72
2023/06/07 10:38:33;;;;;;;1999.90;999.90;;;26.70;83.90;;;;;;6286494;22;20050;-72
2023/06/07 10:41:01;;;;;;;1999.90;999.90;;;26.80;81.90;;;;;;6314030;22;20029;-71
2023/06/07 10:43:28;;;;;;;1999.90;999.90;;;26.80;81.40;;;;;;6314479;22;20008;-71
2023/06/07 10:46:17;;;;;;;1999.90;999.90;;;26.30;81.70;;;;;;6314442;22;20003;-72
2023/06/07 10:48:45;;;;;;;1999.90;999.90;;;25.90;83.50;;;;;;6314295;22;20349;-71
2023/06/07 10:51:11;;;;;;;1999.90;999.90;;;26.10;82.60;;;;;;6313856;22;20000;-69
2023/06/07 10:53:51;;;;;;;1999.90;999.90;;;26.40;84.60;;;;;;6314312;22;20011;-71
2023/06/07 10:56:33;;;;;;;1999.90;999.90;;;26.90;81.30;;;;;;6314324;22;20012;-73
2023/06/07 10:59:14;;;;;;;1999.90;999.90;;;27.50;80.80;;;;;;6313733;22;20026;-72
2023/06/07 11:01:39;;;;;;;1999.90;999.90;;;27.50;80.60;;;;;;6286337;22;20016;-71
2023/06/07 11:04:05;;;;;;;1999.90;999.90;;;27.00;81.50;;;;;;6314315;22;20011;-72
2023/06/07 11:06:33;;;;;;;1999.90;999.90;;;26.40;84.00;;;;;;6313659;22;20382;-72
2023/06/07 11:09:17;;;;;;;1999.90;999.90;;;26.10;84.50;;;;;;6286550;22;20010;-71
2023/06/07 11:11:43;;;;;;;1999.90;999.90;;;26.10;85.50;;;;;;6313891;22;20015;-71
2023/06/07 11:14:11;;;;;;;1999.90;999.90;;;26.80;83.40;;;;;;6314126;22;20008;-72
2023/06/07 11:16:37;;;;;;;1999.90;999.90;;;26.90;82.20;;;;;;6286381;22;20007;-71
2023/06/07 11:19:09;;;;;;;1999.90;999.90;;;27.00;83.10;;;;;;6286447;22;20008;-71
2023/06/07 11:21:53;;;;;;;1999.90;999.90;;;26.70;84.10;;;;;;6313982;22;20011;-72
2023/06/07 11:24:19;;;;;;;1999.90;999.90;;;26.10;83.70;;;;;;6313861;22;20458;-71
2023/06/07 11:26:45;;;;;;;1999.90;999.90;;;26.10;82.70;;;;;;6314281;22;20004;-72
2023/06/07 11:29:11;;;;;;;1999.90;999.90;;;26.20;86.30;;;;;;6313817;22;20011;-71
2023/06/07 11:31:37;;;;;;;1999.90;999.90;;;25.90;88.60;;;;;;6313893;22;20019;-71
2023/06/07 11:34:02;;;;;;;1999.90;999.90;;;26.00;85.20;;;;;;6314087;22;20023;-71
2023/06/07 11:36:32;;;;;;;1999.90;999.90;;;26.40;83.70;;;;;;6313813;22;20355;-71
2023/06/07 11:38:59;;;;;;;1999.90;999.90;;;27.00;85.80;;;;;;6313728;22;20513;-71
2023/06/07 11:41:25;;;;;;;1999.90;999.90;;;27.30;82.50;;;;;;6313628;22;20011;-72
2023/06/07 11:43:51;;;;;;;1999.90;999.90;;;27.50;81.50;;;;;;6313965;22;20012;-71
2023/06/07 11:46:17;;;;;;;1999.90;999.90;;;27.60;79.60;;;;;;6314059;22;20000;-71
2023/06/07 11:48:43;;;;;;;1999.90;999.90;;;27.20;78.90;;;;;;6286310;22;20004;-72
2023/06/07 11:51:08;;;;;;;1999.90;999.90;;;26.70;81.80;;;;;;6313317;22;20015;-71
2023/06/07 11:53:34;;;;;;;1999.90;999.90;;;26.30;81.50;;;;;;6286372;22;20023;-72
2023/06/07 11:56:01;;;;;;;1999.90;999.90;;;25.90;83.10;;;;;;6313747;22;20008;-72
2023/06/07 11:58:27;;;;;;;1999.90;999.90;;;26.10;85.10;;;;;;6313517;22;20012;-72
2023/06/07 12:00:54;;;;;;;1999.90;999.90;;;26.50;83.70;;;;;;6313818;22;20075;-71